Analomink, Pennsylvania
Current Conditions -  °F | °C
As of 2:53 PM on Wednesday 28 Jan 2015 (Local Time) from KMPO Reporting Station
Clear Clear  
Wind Chill: 12°   Ceiling: Unl
Heat Index: 24°   Visibility: 10mi
Dew Point:   Wind: 13mph
Humidity: 37%   Direction: 330°NNW
Pressure: 30.02"   Gusts: 24mph
Location:  41.05°N, 75.22°W
Report Text: KMPO 281953Z AUTO 33011G21KT 10SM CLR M04/M17 A3002 RMK AO2 SLP200 T10441172
Loading
Personal Weather Stations






























Interactive Weather Map New forecast layout! Learn more

10-Day Weather Forecast

Advertisements
Track Severe Weather on mobile